Time;durP1;ratioP1;P1;durP2;ratioP2;P2;SDS_P1;SDS_P2;PMS_P1;PMS_P2;Temp;Humidity;BMP_temperature;BMP_pressure;BME280_temperature;BME280_humidity;BME280_pressure;Samples;Min_cycle;Max_cycle;Signal;HPM_P1;HPM_P2
2023/09/26 00:00:15;;;;;;;5.37;4.17;;;11.10;99.90;;;;;;5017472;28;20461;-58
2023/09/26 00:02:43;;;;;;;5.20;4.70;;;11.10;99.90;;;;;;5017062;28;20777;-57
2023/09/26 00:05:11;;;;;;;5.67;5.13;;;11.10;99.90;;;;;;5017000;28;20461;-58
2023/09/26 00:07:38;;;;;;;5.20;4.60;;;11.10;99.90;;;;;;5017319;28;20464;-56
2023/09/26 00:10:06;;;;;;;4.90;4.40;;;11.00;99.90;;;;;;5016990;28;20496;-56
2023/09/26 00:12:35;;;;;;;6.63;4.80;;;11.00;99.90;;;;;;5017308;28;20460;-55
2023/09/26 00:15:03;;;;;;;6.97;4.70;;;11.00;99.90;;;;;;5016359;28;20495;-57
2023/09/26 00:17:31;;;;;;;9.77;5.10;;;11.00;99.90;;;;;;5016540;28;20515;-57
2023/09/26 00:19:58;;;;;;;6.33;5.07;;;11.00;99.90;;;;;;5016825;28;20471;-58
2023/09/26 00:22:25;;;;;;;5.53;4.80;;;11.00;99.90;;;;;;5017017;28;20568;-57
2023/09/26 00:24:53;;;;;;;5.20;4.70;;;11.10;99.90;;;;;;5016636;28;20460;-57
2023/09/26 00:27:20;;;;;;;6.40;4.53;;;11.00;99.90;;;;;;5016578;28;20464;-57
2023/09/26 00:29:49;;;;;;;7.13;5.17;;;11.00;99.90;;;;;;5016863;28;20543;-57
2023/09/26 00:32:16;;;;;;;5.27;4.70;;;11.00;99.90;;;;;;5016830;28;20470;-58
2023/09/26 00:34:43;;;;;;;7.50;4.90;;;10.90;99.90;;;;;;5016755;28;20502;-58
2023/09/26 00:37:11;;;;;;;4.90;4.40;;;10.90;99.90;;;;;;5016591;28;20811;-57
2023/09/26 00:39:38;;;;;;;7.63;5.07;;;10.90;99.90;;;;;;5016620;28;20774;-57
2023/09/26 00:42:06;;;;;;;5.13;4.47;;;10.90;99.90;;;;;;5016241;28;20563;-56
2023/09/26 00:44:33;;;;;;;5.43;4.40;;;10.90;99.90;;;;;;5016519;28;20535;-57
2023/09/26 00:47:02;;;;;;;5.23;4.33;;;10.80;99.90;;;;;;5015852;28;20465;-57
2023/09/26 00:49:31;;;;;;;5.13;4.63;;;10.80;99.90;;;;;;5016381;28;20901;-57
2023/09/26 00:52:01;;;;;;;7.53;4.90;;;10.80;99.90;;;;;;5016579;28;20750;-57
2023/09/26 00:54:29;;;;;;;6.80;5.20;;;10.80;99.90;;;;;;5016370;28;20582;-56
2023/09/26 00:56:57;;;;;;;5.57;4.67;;;10.70;99.90;;;;;;5016764;28;20558;-55
2023/09/26 00:59:25;;;;;;;6.03;5.20;;;10.60;99.90;;;;;;5016420;28;20460;-56
2023/09/26 01:01:53;;;;;;;6.53;4.63;;;10.60;99.90;;;;;;5015538;28;20784;-55
2023/09/26 01:04:22;;;;;;;5.83;4.77;;;10.60;99.90;;;;;;5016207;28;20848;-57
2023/09/26 01:06:49;;;;;;;5.80;4.83;;;10.50;99.90;;;;;;5016182;28;20550;-57
2023/09/26 01:09:17;;;;;;;8.73;4.60;;;10.50;1.00;;;;;;5015475;28;20468;-56
2023/09/26 01:11:44;;;;;;;5.70;4.57;;;10.40;1.00;;;;;;5016024;28;20503;-57
2023/09/26 01:14:11;;;;;;;6.57;4.77;;;10.40;1.00;;;;;;5015366;28;20815;-57
2023/09/26 01:16:39;;;;;;;5.53;4.83;;;10.50;1.00;;;;;;5016003;28;20471;-56
2023/09/26 01:19:07;;;;;;;9.77;4.90;;;10.40;1.00;;;;;;5015862;28;20470;-55
2023/09/26 01:21:35;;;;;;;7.07;5.17;;;10.40;99.90;;;;;;5015867;28;20889;-55
2023/09/26 01:24:04;;;;;;;7.00;6.30;;;10.40;99.90;;;;;;5015711;28;20467;-56
2023/09/26 01:26:36;;;;;;;7.70;5.27;;;10.40;99.90;;;;;;5016192;28;20464;-57
2023/09/26 01:29:04;;;;;;;5.97;4.47;;;10.30;99.90;;;;;;5015591;28;20456;-56
2023/09/26 01:31:34;;;;;;;5.40;4.27;;;10.30;99.90;;;;;;5015980;28;20464;-56
2023/09/26 01:34:01;;;;;;;5.70;5.00;;;10.30;99.90;;;;;;5015454;28;20547;-56
2023/09/26 01:36:28;;;;;;;5.97;4.83;;;10.20;99.90;;;;;;5015665;28;20896;-56
2023/09/26 01:38:55;;;;;;;5.47;4.30;;;10.30;1.00;;;;;;5015806;28;20466;-56
2023/09/26 01:41:25;;;;;;;7.53;4.60;;;10.20;1.00;;;;;;5015842;28;20487;-56
2023/09/26 01:43:51;;;;;;;5.80;5.20;;;10.20;1.00;;;;;;5015003;28;20550;-54
2023/09/26 01:46:20;;;;;;;6.27;5.33;;;10.20;1.00;;;;;;5016096;28;20483;-56
2023/09/26 01:48:48;;;;;;;6.90;4.93;;;10.20;99.90;;;;;;5015775;28;20556;-56
2023/09/26 01:51:15;;;;;;;5.93;5.00;;;10.10;99.90;;;;;;5015146;28;20888;-57
2023/09/26 01:53:43;;;;;;;6.93;4.67;;;10.10;1.00;;;;;;5015454;28;20474;-56
2023/09/26 01:56:10;;;;;;;5.70;4.90;;;10.10;99.90;;;;;;5015350;28;20493;-53
2023/09/26 01:58:38;;;;;;;5.40;4.73;;;10.10;99.90;;;;;;5015474;28;20551;-55
2023/09/26 02:01:06;;;;;;;7.07;4.83;;;10.00;1.00;;;;;;5015061;28;20747;-58
2023/09/26 02:03:34;;;;;;;5.90;5.30;;;9.90;99.90;;;;;;5014814;28;20470;-56
2023/09/26 02:06:01;;;;;;;7.80;5.03;;;9.90;1.00;;;;;;5015007;28;20456;-56
2023/09/26 02:08:28;;;;;;;6.20;4.93;;;9.80;1.00;;;;;;5014864;28;20464;-57
2023/09/26 02:10:56;;;;;;;6.70;5.07;;;9.80;1.00;;;;;;5014384;28;20743;-56
2023/09/26 02:13:24;;;;;;;6.80;4.73;;;9.80;99.90;;;;;;5014417;28;20552;-56
2023/09/26 02:15:53;;;;;;;7.03;5.47;;;9.80;99.90;;;;;;5014948;28;20560;-57
2023/09/26 02:18:20;;;;;;;6.90;5.63;;;9.80;99.90;;;;;;5015025;28;20586;-55
2023/09/26 02:20:47;;;;;;;8.13;5.43;;;9.80;99.90;;;;;;5015075;28;20435;-56
2023/09/26 02:23:15;;;;;;;7.37;5.77;;;9.80;1.00;;;;;;5014934;28;20562;-57
2023/09/26 02:25:51;;;;;;;5.90;5.00;;;9.70;1.00;;;;;;5014588;28;20456;-57
2023/09/26 02:28:19;;;;;;;6.77;5.73;;;9.70;1.00;;;;;;5015121;28;20430;-57
2023/09/26 02:30:47;;;;;;;7.20;5.20;;;9.60;1.00;;;;;;5014939;28;20543;-56
2023/09/26 02:33:16;;;;;;;6.20;4.93;;;9.70;1.00;;;;;;5014580;28;20460;-54
2023/09/26 02:35:43;;;;;;;8.00;5.33;;;9.70;1.00;;;;;;5014609;28;20594;-56
2023/09/26 02:38:10;;;;;;;6.20;4.70;;;9.70;1.00;;;;;;5014977;28;20542;-57
2023/09/26 02:40:37;;;;;;;6.50;4.80;;;9.70;1.00;;;;;;5014937;28;20468;-55
2023/09/26 02:43:05;;;;;;;6.33;5.73;;;9.70;1.00;;;;;;5014373;28;20497;-56
2023/09/26 02:45:32;;;;;;;6.60;5.83;;;9.80;1.00;;;;;;5014274;28;20455;-56
2023/09/26 02:47:59;;;;;;;6.00;4.73;;;9.90;1.00;;;;;;5014566;28;20554;-54
2023/09/26 02:50:28;;;;;;;6.70;5.70;;;9.80;1.00;;;;;;5013913;28;20471;-57
2023/09/26 02:52:55;;;;;;;6.97;5.20;;;9.70;1.00;;;;;;5028572;28;20460;-53
2023/09/26 02:55:22;;;;;;;7.13;6.53;;;9.70;71.50;;;;;;5033989;28;20469;-56
2023/09/26 02:57:49;;;;;;;6.43;5.50;;;9.80;94.00;;;;;;5034422;28;20546;-55
2023/09/26 03:00:17;;;;;;;6.00;5.40;;;9.70;99.90;;;;;;5033989;28;20516;-56
2023/09/26 03:02:45;;;;;;;6.47;5.60;;;9.80;99.90;;;;;;5034469;28;20459;-54
2023/09/26 03:05:13;;;;;;;8.10;5.93;;;9.80;87.10;;;;;;5034153;28;20455;-56
2023/09/26 03:07:42;;;;;;;6.70;5.70;;;9.70;81.20;;;;;;5034059;28;20765;-56
2023/09/26 03:10:10;;;;;;;6.73;5.27;;;9.70;1.00;;;;;;5034226;28;20840;-55
2023/09/26 03:12:37;;;;;;;6.73;6.10;;;9.60;1.00;;;;;;5033879;28;20463;-56
2023/09/26 03:15:06;;;;;;;7.93;5.43;;;9.60;1.00;;;;;;5033321;28;20491;-56
2023/09/26 03:17:33;;;;;;;8.37;5.67;;;9.60;1.00;;;;;;5033730;28;20493;-56
2023/09/26 03:20:00;;;;;;;18.07;6.70;;;9.60;1.00;;;;;;5033251;28;20468;-56
2023/09/26 03:22:27;;;;;;;6.70;5.17;;;9.60;1.00;;;;;;5033715;28;20509;-55
2023/09/26 03:24:56;;;;;;;9.87;5.40;;;9.50;1.00;;;;;;5033930;28;20462;-55
2023/09/26 03:27:24;;;;;;;5.70;5.10;;;9.50;1.00;;;;;;5033768;28;20557;-57
2023/09/26 03:29:52;;;;;;;6.63;6.00;;;9.50;1.00;;;;;;5034357;28;20466;-56
2023/09/26 03:32:19;;;;;;;8.10;6.23;;;9.50;1.00;;;;;;5033969;28;20459;-56
2023/09/26 03:34:47;;;;;;;6.90;6.00;;;9.50;1.00;;;;;;5033719;28;20914;-56
2023/09/26 03:37:14;;;;;;;6.43;5.83;;;9.50;99.90;;;;;;5035093;28;20438;-56
2023/09/26 03:39:41;;;;;;;7.00;6.33;;;9.50;99.90;;;;;;5036780;28;20894;-56
2023/09/26 03:42:11;;;;;;;7.60;6.90;;;9.40;1.00;;;;;;5036887;28;20498;-56
2023/09/26 03:44:38;;;;;;;6.70;6.00;;;9.40;1.00;;;;;;5037144;28;20466;-56
2023/09/26 03:47:05;;;;;;;6.70;5.97;;;9.40;1.00;;;;;;5037134;28;20740;-55
2023/09/26 03:49:32;;;;;;;7.73;6.20;;;9.30;1.00;;;;;;5035313;28;20922;-56
2023/09/26 03:52:00;;;;;;;6.77;6.07;;;9.30;1.00;;;;;;5034630;28;20926;-56
2023/09/26 03:54:28;;;;;;;7.63;6.83;;;9.20;1.00;;;;;;5035529;28;20554;-57
2023/09/26 03:56:56;;;;;;;6.87;5.43;;;9.20;1.00;;;;;;5035254;28;20486;-56
2023/09/26 03:59:24;;;;;;;7.20;6.20;;;9.20;1.00;;;;;;5035178;28;20586;-57
2023/09/26 04:01:51;;;;;;;6.70;6.10;;;9.20;1.00;;;;;;5034992;28;20465;-56
2023/09/26 04:04:18;;;;;;;6.60;6.00;;;9.10;1.00;;;;;;5113604;27;20513;-56
2023/09/26 04:06:46;;;;;;;7.07;6.27;;;9.20;1.00;;;;;;5140259;27;20533;-57
2023/09/26 04:09:14;;;;;;;7.30;6.50;;;9.20;1.00;;;;;;5140491;27;20458;-58
2023/09/26 04:11:41;;;;;;;6.90;5.90;;;9.10;1.00;;;;;;5141279;27;20883;-58
2023/09/26 04:14:08;;;;;;;6.77;6.00;;;9.10;1.00;;;;;;5141411;27;21011;-57
2023/09/26 04:16:39;;;;;;;7.17;5.73;;;9.00;1.00;;;;;;5140835;27;20526;-57
2023/09/26 04:19:06;;;;;;;6.97;6.37;;;9.00;1.00;;;;;;5140640;27;20524;-56
2023/09/26 04:21:33;;;;;;;7.83;6.03;;;9.00;1.00;;;;;;5140628;27;20497;-57
2023/09/26 04:24:04;;;;;;;8.10;5.73;;;9.10;1.00;;;;;;5140584;27;20465;-57
2023/09/26 04:26:31;;;;;;;8.30;6.30;;;9.10;1.00;;;;;;5141273;27;20472;-57
2023/09/26 04:28:58;;;;;;;6.73;6.13;;;9.10;1.00;;;;;;5140410;27;20541;-57
2023/09/26 04:31:25;;;;;;;6.73;6.13;;;9.20;47.90;;;;;;5140381;27;20463;-56
2023/09/26 04:33:54;;;;;;;7.13;6.40;;;9.10;32.10;;;;;;5140340;27;20459;-56
2023/09/26 04:36:21;;;;;;;9.30;6.77;;;9.10;5.40;;;;;;5140611;27;20486;-56
2023/09/26 04:38:48;;;;;;;6.93;6.23;;;9.10;1.00;;;;;;5140386;27;20464;-56
2023/09/26 04:41:16;;;;;;;7.77;6.97;;;9.10;26.60;;;;;;5140698;27;20476;-56
2023/09/26 04:43:43;;;;;;;8.27;7.47;;;9.10;45.60;;;;;;5140500;27;20512;-56
2023/09/26 04:46:12;;;;;;;7.57;6.30;;;9.10;99.90;;;;;;5140499;27;20451;-57
2023/09/26 04:48:39;;;;;;;8.50;7.60;;;9.00;1.00;;;;;;5139668;27;20926;-58
2023/09/26 04:51:10;;;;;;;9.70;7.07;;;9.00;32.10;;;;;;5139761;27;20518;-57
2023/09/26 04:53:37;;;;;;;8.93;7.10;;;9.10;99.90;;;;;;5140038;27;20459;-58
2023/09/26 04:56:05;;;;;;;8.40;7.60;;;9.10;99.90;;;;;;5140387;27;20589;-56
2023/09/26 04:58:33;;;;;;;9.20;6.80;;;9.00;76.30;;;;;;5139998;27;20433;-54
2023/09/26 05:01:01;;;;;;;8.37;6.40;;;9.00;99.90;;;;;;5139853;27;20895;-58
2023/09/26 05:03:29;;;;;;;7.60;6.90;;;9.00;79.70;;;;;;5139544;27;20484;-57
2023/09/26 05:05:56;;;;;;;7.00;6.30;;;9.00;29.70;;;;;;5140066;27;20454;-57
2023/09/26 05:08:26;;;;;;;9.10;7.60;;;9.00;99.60;;;;;;5139220;27;21055;-57
2023/09/26 05:10:53;;;;;;;9.17;8.30;;;9.00;99.90;;;;;;5139849;27;20455;-57
2023/09/26 05:13:20;;;;;;;8.90;7.47;;;9.00;99.90;;;;;;5139915;27;20472;-58
2023/09/26 05:15:47;;;;;;;9.90;7.83;;;9.00;99.90;;;;;;5139936;27;20573;-57
2023/09/26 05:18:15;;;;;;;8.83;7.93;;;9.00;99.90;;;;;;5139362;27;20453;-58
2023/09/26 05:20:43;;;;;;;11.17;8.50;;;9.00;99.90;;;;;;5140001;27;20490;-57
2023/09/26 05:23:10;;;;;;;8.03;7.23;;;9.00;99.90;;;;;;5139125;27;20455;-57
2023/09/26 05:25:38;;;;;;;8.53;7.60;;;9.00;99.90;;;;;;5139485;27;20553;-57
2023/09/26 05:28:06;;;;;;;9.70;7.37;;;9.10;99.90;;;;;;5139502;27;20918;-57
2023/09/26 05:30:33;;;;;;;9.03;7.67;;;9.10;99.90;;;;;;5139386;27;20541;-56
2023/09/26 05:33:00;;;;;;;9.27;8.07;;;9.00;99.90;;;;;;5138737;27;20459;-57
2023/09/26 05:35:28;;;;;;;7.83;7.03;;;9.00;99.90;;;;;;5139748;27;20537;-59
2023/09/26 05:37:55;;;;;;;8.70;7.50;;;9.10;99.90;;;;;;5139387;27;20502;-60
2023/09/26 05:40:22;;;;;;;8.93;8.03;;;9.20;99.90;;;;;;5139431;27;20498;-59
2023/09/26 05:42:51;;;;;;;11.03;7.33;;;9.30;99.90;;;;;;5139669;27;20867;-59
2023/09/26 05:45:18;;;;;;;8.83;7.73;;;9.30;99.90;;;;;;5139315;27;20959;-59
2023/09/26 05:47:45;;;;;;;10.10;6.87;;;9.30;99.90;;;;;;5139554;27;20921;-60
2023/09/26 05:50:13;;;;;;;7.73;6.77;;;9.30;99.90;;;;;;5138562;27;20450;-60
2023/09/26 05:52:40;;;;;;;7.93;7.00;;;9.40;99.90;;;;;;5139145;27;20724;-59
2023/09/26 05:55:09;;;;;;;9.70;7.00;;;9.40;99.90;;;;;;5139000;27;20450;-59
2023/09/26 05:57:36;;;;;;;11.20;6.57;;;9.50;1.00;;;;;;5139269;27;20463;-59
2023/09/26 06:00:12;;;;;;;8.60;7.20;;;9.50;1.00;;;;;;5138808;27;20538;-59
2023/09/26 06:02:39;;;;;;;8.57;7.63;;;9.60;99.90;;;;;;5139296;27;20860;-59
2023/09/26 06:05:07;;;;;;;11.53;7.63;;;9.70;99.90;;;;;;5138725;27;20457;-59
2023/09/26 06:07:35;;;;;;;8.80;7.90;;;9.80;99.90;;;;;;5139147;27;20450;-59
2023/09/26 06:10:03;;;;;;;7.60;6.80;;;9.90;40.00;;;;;;5139035;27;20509;-60
2023/09/26 06:12:31;;;;;;;8.63;7.70;;;10.00;1.00;;;;;;5139453;27;20438;-60
2023/09/26 06:14:58;;;;;;;9.73;8.33;;;10.10;1.00;;;;;;5139171;27;20429;-59
2023/09/26 06:17:27;;;;;;;8.83;7.17;;;10.20;1.00;;;;;;5138385;27;20545;-60
2023/09/26 06:19:55;;;;;;;8.43;7.47;;;10.30;1.00;;;;;;5074580;27;20460;-60
2023/09/26 06:22:22;;;;;;;8.77;7.70;;;10.50;1.00;;;;;;5033122;28;20464;-60
2023/09/26 06:24:49;;;;;;;8.27;7.10;;;10.70;1.00;;;;;;5033107;28;20555;-60
2023/09/26 06:27:16;;;;;;;8.30;6.27;;;10.80;99.90;;;;;;5026904;28;20465;-60
2023/09/26 06:29:44;;;;;;;7.50;6.70;;;10.90;1.00;;;;;;5032556;28;20784;-59
2023/09/26 06:32:12;;;;;;;7.20;6.50;;;11.10;1.00;;;;;;5033105;28;20528;-60
2023/09/26 06:34:40;;;;;;;6.70;6.10;;;11.20;99.90;;;;;;5033544;28;20794;-60
2023/09/26 06:37:07;;;;;;;7.40;6.60;;;11.30;99.90;;;;;;5034456;28;20490;-60
2023/09/26 06:39:34;;;;;;;9.03;7.63;;;11.50;99.90;;;;;;5034364;28;20891;-60
2023/09/26 06:42:02;;;;;;;8.50;6.57;;;11.60;19.10;;;;;;5033264;28;20463;-60
2023/09/26 06:44:29;;;;;;;9.30;7.03;;;11.70;1.00;;;;;;5026287;28;20468;-60
2023/09/26 06:46:57;;;;;;;8.20;6.70;;;11.80;99.90;;;;;;5013011;28;20434;-61
2023/09/26 06:49:24;;;;;;;9.57;6.47;;;12.10;1.00;;;;;;5013138;28;20848;-59
2023/09/26 06:51:53;;;;;;;8.20;7.40;;;12.20;99.90;;;;;;5013122;28;20936;-61
2023/09/26 06:54:20;;;;;;;13.03;6.30;;;12.30;99.90;;;;;;5013298;28;20953;-60
2023/09/26 06:56:47;;;;;;;9.30;6.10;;;12.50;99.90;;;;;;5013636;28;20491;-61
2023/09/26 06:59:14;;;;;;;10.30;7.13;;;12.60;99.90;;;;;;5014715;28;20487;-61
2023/09/26 07:01:41;;;;;;;9.10;5.53;;;12.70;80.10;;;;;;5014539;28;20472;-61
2023/09/26 07:04:14;;;;;;;9.23;6.03;;;12.80;1.00;;;;;;5014798;28;20460;-61
2023/09/26 07:06:41;;;;;;;8.23;5.73;;;13.00;8.60;;;;;;5014952;28;20460;-61
2023/09/26 07:09:12;;;;;;;8.90;5.37;;;13.20;1.00;;;;;;5013924;28;20509;-61
2023/09/26 07:11:40;;;;;;;11.40;5.70;;;13.40;1.00;;;;;;5014616;28;20983;-61
2023/09/26 07:14:08;;;;;;;8.63;5.90;;;13.40;1.00;;;;;;5018294;28;20748;-61
2023/09/26 07:16:35;;;;;;;9.50;5.77;;;13.60;1.00;;;;;;5018196;28;20495;-61
2023/09/26 07:19:03;;;;;;;8.80;5.47;;;13.80;1.00;;;;;;5018655;28;20460;-62
2023/09/26 07:21:30;;;;;;;10.37;6.60;;;14.10;1.00;;;;;;5022207;28;20552;-62
2023/09/26 07:23:59;;;;;;;10.63;6.07;;;14.30;1.00;;;;;;5018301;28;20482;-62
2023/09/26 07:26:29;;;;;;;7.13;5.53;;;14.70;1.00;;;;;;5017565;28;20880;-62
2023/09/26 07:28:56;;;;;;;9.10;5.30;;;15.00;1.00;;;;;;5017319;28;21024;-62
2023/09/26 07:31:23;;;;;;;5.53;4.37;;;15.30;1.00;;;;;;5017606;28;20460;-62
2023/09/26 07:33:51;;;;;;;7.80;5.90;;;15.50;1.00;;;;;;5017664;28;20460;-62
2023/09/26 07:36:19;;;;;;;6.47;4.43;;;15.70;99.90;;;;;;5018366;28;20438;-62
2023/09/26 07:38:46;;;;;;;7.87;4.37;;;16.00;99.90;;;;;;5017519;28;20464;-61
2023/09/26 07:41:13;;;;;;;6.70;5.77;;;16.10;99.90;;;;;;5015996;28;20535;-62
2023/09/26 07:43:42;;;;;;;4.90;4.00;;;16.30;99.90;;;;;;5018413;27;20476;-61
2023/09/26 07:46:10;;;;;;;4.73;4.33;;;16.50;99.90;;;;;;5015982;28;20464;-62
2023/09/26 07:48:39;;;;;;;6.33;4.17;;;16.70;1.00;;;;;;5015847;28;20460;-61
2023/09/26 07:51:08;;;;;;;5.20;4.40;;;16.90;10.10;;;;;;5015715;28;20467;-61
2023/09/26 07:53:35;;;;;;;4.17;3.77;;;17.10;1.00;;;;;;5016399;28;20533;-62
2023/09/26 07:56:03;;;;;;;6.67;4.10;;;17.30;1.00;;;;;;5017351;28;20464;-61
2023/09/26 07:58:30;;;;;;;4.63;3.67;;;17.50;1.00;;;;;;5017326;28;20586;-61
2023/09/26 08:01:00;;;;;;;6.37;4.23;;;17.80;1.00;;;;;;5016769;28;20456;-62
2023/09/26 08:03:28;;;;;;;4.40;4.00;;;17.90;1.00;;;;;;5017244;28;20464;-61
2023/09/26 08:06:00;;;;;;;5.07;3.83;;;18.20;1.00;;;;;;5016633;28;20475;-61
2023/09/26 08:08:28;;;;;;;5.43;4.07;;;18.40;1.00;;;;;;5015910;28;20881;-59
2023/09/26 08:10:56;;;;;;;5.30;4.20;;;18.60;1.00;;;;;;5017125;28;20460;-61
2023/09/26 08:13:23;;;;;;;6.87;4.60;;;18.80;1.00;;;;;;5016547;28;20525;-61
2023/09/26 08:15:51;;;;;;;5.57;5.07;;;19.00;99.90;;;;;;5016015;28;20892;-61
2023/09/26 08:18:20;;;;;;;5.73;5.23;;;19.30;1.00;;;;;;5016112;28;20602;-61
2023/09/26 08:20:47;;;;;;;4.50;4.10;;;19.50;1.00;;;;;;5016400;28;20464;-61
2023/09/26 08:23:17;;;;;;;4.43;3.80;;;19.80;99.90;;;;;;5016263;28;20484;-61
2023/09/26 08:25:45;;;;;;;6.00;4.40;;;19.90;99.90;;;;;;5016955;28;20468;-61
2023/09/26 08:28:12;;;;;;;4.03;3.63;;;20.00;90.00;;;;;;5016422;28;20456;-61
2023/09/26 08:30:42;;;;;;;5.73;4.20;;;20.20;99.90;;;;;;5015960;28;20578;-61
2023/09/26 08:33:09;;;;;;;4.63;4.07;;;20.50;1.00;;;;;;5017293;28;20477;-59
2023/09/26 08:35:38;;;;;;;6.70;3.63;;;20.70;51.50;;;;;;5033800;27;20474;-61
2023/09/26 08:38:05;;;;;;;5.43;3.47;;;20.90;1.00;;;;;;5034939;28;20700;-59
2023/09/26 08:40:33;;;;;;;4.70;4.20;;;21.20;1.00;;;;;;5035628;28;20465;-61
2023/09/26 08:43:05;;;;;;;7.90;3.60;;;21.20;1.00;;;;;;5035992;28;20554;-61
2023/09/26 08:45:34;;;;;;;7.60;4.00;;;21.40;1.00;;;;;;5035567;28;20467;-61
2023/09/26 08:48:02;;;;;;;6.60;3.57;;;21.80;99.90;;;;;;5035353;28;20463;-61
2023/09/26 08:50:29;;;;;;;3.50;3.20;;;22.00;99.90;;;;;;5035723;28;20459;-61
2023/09/26 08:52:59;;;;;;;4.10;3.53;;;22.10;99.90;;;;;;5035344;28;20461;-61
2023/09/26 08:55:26;;;;;;;3.97;3.67;;;22.30;99.90;;;;;;5036147;28;20467;-61
2023/09/26 08:57:55;;;;;;;4.23;3.30;;;22.40;99.90;;;;;;5035831;28;20521;-61
2023/09/26 09:00:26;;;;;;;3.97;3.57;;;22.60;99.90;;;;;;5035606;28;20434;-61
2023/09/26 09:02:53;;;;;;;4.77;3.77;;;22.70;99.90;;;;;;5036120;28;20507;-60
2023/09/26 09:05:22;;;;;;;4.87;3.20;;;22.90;99.90;;;;;;5035858;28;20810;-61
2023/09/26 09:07:50;;;;;;;4.50;4.10;;;23.00;99.90;;;;;;5035583;28;20459;-61
2023/09/26 09:10:19;;;;;;;3.70;3.40;;;23.00;26.70;;;;;;5035532;28;20516;-60
2023/09/26 09:12:49;;;;;;;4.73;3.87;;;23.10;1.00;;;;;;5036000;28;20520;-61
2023/09/26 09:15:22;;;;;;;4.33;3.50;;;23.10;1.00;;;;;;5035715;28;20434;-61
2023/09/26 09:17:52;;;;;;;3.50;2.90;;;23.30;1.00;;;;;;5035080;28;20484;-61
2023/09/26 09:20:31;;;;;;;3.93;3.60;;;23.40;1.00;;;;;;5035397;28;20794;-61
2023/09/26 09:23:05;;;;;;;8.90;3.20;;;23.50;1.00;;;;;;5035439;28;20886;-61
2023/09/26 09:25:36;;;;;;;3.50;3.20;;;23.60;1.00;;;;;;5028995;28;20506;-61
2023/09/26 09:28:04;;;;;;;3.93;3.33;;;23.70;1.00;;;;;;5035510;28;20524;-60
2023/09/26 09:30:38;;;;;;;4.30;3.90;;;23.80;1.00;;;;;;5035288;28;20459;-61
2023/09/26 09:33:09;;;;;;;4.80;3.73;;;23.80;1.00;;;;;;5035231;28;20515;-61
2023/09/26 09:35:37;;;;;;;4.90;3.20;;;23.80;1.00;;;;;;5034213;28;20460;-62
2023/09/26 09:38:08;;;;;;;3.83;3.50;;;23.60;1.00;;;;;;5035062;28;20530;-61
2023/09/26 09:40:38;;;;;;;4.70;3.43;;;23.50;99.90;;;;;;5034998;28;20617;-61
2023/09/26 09:43:05;;;;;;;4.53;3.33;;;23.70;99.90;;;;;;5035021;28;20430;-61
2023/09/26 09:45:35;;;;;;;3.70;3.40;;;23.60;99.90;;;;;;5035207;28;20465;-61
2023/09/26 09:48:06;;;;;;;3.90;3.40;;;23.70;99.90;;;;;;5034972;28;20460;-61
2023/09/26 09:50:36;;;;;;;3.40;3.20;;;23.70;99.90;;;;;;5035093;28;20498;-61
2023/09/26 09:53:04;;;;;;;3.47;2.87;;;23.70;99.90;;;;;;5034818;28;20487;-61
2023/09/26 09:55:38;;;;;;;4.43;3.40;;;23.70;99.90;;;;;;5034853;28;20459;-61
2023/09/26 09:58:09;;;;;;;4.90;3.73;;;23.90;99.90;;;;;;5035124;28;20594;-61
2023/09/26 10:00:38;;;;;;;3.27;2.90;;;24.20;99.90;;;;;;5034755;28;20459;-61
2023/09/26 10:03:07;;;;;;;4.23;3.83;;;24.50;99.90;;;;;;5034586;28;20463;-60
2023/09/26 10:05:35;;;;;;;3.57;3.27;;;24.60;99.90;;;;;;5022820;28;20578;-61
2023/09/26 10:08:05;;;;;;;3.13;2.73;;;24.70;99.90;;;;;;5014260;28;20459;-61
2023/09/26 10:10:33;;;;;;;3.60;3.30;;;24.90;99.90;;;;;;5013512;28;20495;-61
2023/09/26 10:13:04;;;;;;;3.90;3.10;;;24.90;99.90;;;;;;5014728;28;20513;-61
2023/09/26 10:15:33;;;;;;;3.50;3.20;;;24.80;99.90;;;;;;5014962;28;20464;-62
2023/09/26 10:18:03;;;;;;;4.17;3.50;;;25.00;99.90;;;;;;5014517;28;20523;-61
2023/09/26 10:20:31;;;;;;;5.73;3.30;;;25.20;99.90;;;;;;5014349;28;20525;-61
2023/09/26 10:23:11;;;;;;;3.27;2.97;;;25.30;99.90;;;;;;5014756;28;20456;-61
2023/09/26 10:25:38;;;;;;;3.77;3.43;;;25.20;99.90;;;;;;5014830;28;20516;-61
2023/09/26 10:28:09;;;;;;;2.80;2.50;;;25.20;99.90;;;;;;5014997;28;20554;-62
2023/09/26 10:30:45;;;;;;;3.17;2.87;;;25.30;99.90;;;;;;5014834;28;20544;-61
2023/09/26 10:33:13;;;;;;;3.00;2.70;;;25.60;99.90;;;;;;5014459;28;20468;-61
2023/09/26 10:35:44;;;;;;;4.03;2.80;;;25.80;99.90;;;;;;5014437;28;20464;-61
2023/09/26 10:38:18;;;;;;;3.27;2.90;;;26.00;99.90;;;;;;5014336;28;20932;-61
2023/09/26 10:40:45;;;;;;;4.10;3.00;;;26.20;99.90;;;;;;5014787;28;20472;-61
2023/09/26 10:43:15;;;;;;;3.00;2.70;;;26.30;99.90;;;;;;5014194;28;20562;-62
2023/09/26 10:45:46;;;;;;;3.60;3.30;;;26.30;99.90;;;;;;5014243;28;20456;-62
2023/09/26 10:48:19;;;;;;;4.87;3.70;;;26.40;99.90;;;;;;5020496;28;20437;-62
2023/09/26 10:50:47;;;;;;;3.13;2.83;;;26.60;99.90;;;;;;5033942;28;20464;-59
2023/09/26 10:53:14;;;;;;;3.90;3.60;;;26.70;99.90;;;;;;5034053;28;20528;-61
2023/09/26 10:55:43;;;;;;;2.93;2.67;;;26.70;84.80;;;;;;5033969;28;20551;-62
2023/09/26 10:58:12;;;;;;;5.73;3.07;;;26.70;50.80;;;;;;5033762;28;20490;-61
2023/09/26 11:00:50;;;;;;;3.60;3.30;;;26.70;23.70;;;;;;5034133;28;20463;-62
2023/09/26 11:03:18;;;;;;;4.10;3.17;;;26.90;30.00;;;;;;5033825;28;20459;-61
2023/09/26 11:05:46;;;;;;;3.70;3.10;;;26.90;6.90;;;;;;5033901;28;20465;-61
2023/09/26 11:08:13;;;;;;;3.30;3.00;;;26.40;1.00;;;;;;5027731;28;20509;-61
2023/09/26 11:10:46;;;;;;;3.80;2.80;;;26.70;1.00;;;;;;5030328;28;20960;-62
2023/09/26 11:13:14;;;;;;;4.07;3.00;;;26.80;1.00;;;;;;5034146;28;20501;-62
2023/09/26 11:15:45;;;;;;;3.00;2.80;;;27.00;1.00;;;;;;5033627;28;20459;-61
2023/09/26 11:18:13;;;;;;;2.87;2.57;;;27.30;1.00;;;;;;5034041;28;20782;-62
2023/09/26 11:20:41;;;;;;;3.53;3.23;;;27.60;1.00;;;;;;5033943;28;20523;-62
2023/09/26 11:23:08;;;;;;;3.27;3.00;;;27.70;1.00;;;;;;5033902;28;20830;-62
2023/09/26 11:25:36;;;;;;;3.10;2.80;;;27.30;1.00;;;;;;5033563;28;20474;-61
2023/09/26 11:28:04;;;;;;;3.37;3.07;;;27.20;1.00;;;;;;5032677;28;20577;-61
2023/09/26 11:30:32;;;;;;;2.70;2.50;;;27.40;1.00;;;;;;5033711;28;20467;-61
2023/09/26 11:33:01;;;;;;;3.33;3.03;;;27.30;1.00;;;;;;5032410;28;20502;-61
2023/09/26 11:35:28;;;;;;;4.77;2.90;;;27.20;1.00;;;;;;5032943;28;20455;-60
2023/09/26 11:37:56;;;;;;;3.20;2.90;;;27.20;1.00;;;;;;5033026;28;20495;-60
2023/09/26 11:40:24;;;;;;;3.50;3.20;;;27.10;1.00;;;;;;5034169;28;20454;-61
2023/09/26 11:42:55;;;;;;;3.47;3.10;;;26.80;1.00;;;;;;5033785;28;20463;-62
2023/09/26 11:45:24;;;;;;;3.10;2.80;;;26.60;1.00;;;;;;5033241;28;20463;-60
2023/09/26 11:47:53;;;;;;;3.27;2.90;;;26.80;1.00;;;;;;5033616;28;20549;-59
2023/09/26 11:50:22;;;;;;;2.97;2.67;;;26.70;1.00;;;;;;5029318;28;20504;-60
2023/09/26 11:52:50;;;;;;;3.20;2.27;;;26.80;1.00;;;;;;5033067;28;20459;-61
2023/09/26 11:55:18;;;;;;;3.23;3.00;;;26.70;1.00;;;;;;5032553;28;20875;-62
2023/09/26 11:57:46;;;;;;;3.07;2.70;;;26.70;1.00;;;;;;5032838;28;20501;-61
2023/09/26 12:00:16;;;;;;;2.80;2.60;;;26.90;1.00;;;;;;5020781;28;20811;-61
2023/09/26 12:02:44;;;;;;;3.70;3.40;;;27.20;1.00;;;;;;5021975;28;20476;-61
2023/09/26 12:05:13;;;;;;;3.07;2.77;;;27.20;1.00;;;;;;5016376;28;20460;-60
2023/09/26 12:07:42;;;;;;;4.23;3.30;;;26.90;1.00;;;;;;5017075;28;20471;-60
2023/09/26 12:10:11;;;;;;;3.50;3.20;;;27.10;1.00;;;;;;5017081;28;20464;-60
2023/09/26 12:12:38;;;;;;;3.13;2.70;;;27.20;1.00;;;;;;5019686;28;20776;-60
2023/09/26 12:15:20;;;;;;;5.10;3.30;;;27.30;1.00;;;;;;5026401;28;20562;-60
2023/09/26 12:17:47;;;;;;;3.13;2.83;;;27.30;1.00;;;;;;5024602;28;20983;-60
2023/09/26 12:20:21;;;;;;;3.10;2.70;;;27.30;1.00;;;;;;5019150;28;20475;-60
2023/09/26 12:22:50;;;;;;;2.60;2.40;;;27.50;1.00;;;;;;5020778;28;20912;-60
2023/09/26 12:25:17;;;;;;;3.37;3.07;;;27.70;1.00;;;;;;5017184;28;20475;-61
2023/09/26 12:27:47;;;;;;;4.00;2.90;;;27.60;1.00;;;;;;5016653;28;20547;-61
2023/09/26 12:30:14;;;;;;;2.73;2.53;;;27.70;1.00;;;;;;5016602;28;20464;-61
2023/09/26 12:32:42;;;;;;;2.80;2.60;;;27.90;1.00;;;;;;5017230;28;20975;-60
2023/09/26 12:35:11;;;;;;;3.00;2.80;;;28.10;1.00;;;;;;5028257;28;20459;-60
2023/09/26 12:37:40;;;;;;;3.77;2.90;;;28.10;1.00;;;;;;5033549;28;20463;-59
2023/09/26 12:40:10;;;;;;;3.40;3.10;;;28.10;1.00;;;;;;5034483;28;20463;-59
2023/09/26 12:42:38;;;;;;;4.23;3.20;;;28.10;1.00;;;;;;5034812;28;20892;-60
2023/09/26 12:45:07;;;;;;;3.33;2.90;;;27.70;1.00;;;;;;5034544;28;20466;-59
2023/09/26 12:47:34;;;;;;;3.33;3.03;;;27.70;1.00;;;;;;5034418;28;20466;-60
2023/09/26 12:50:05;;;;;;;3.60;3.30;;;27.60;1.00;;;;;;5035433;28;20809;-60
2023/09/26 12:52:33;;;;;;;2.90;2.67;;;27.40;1.00;;;;;;5034708;28;20463;-59
2023/09/26 12:55:00;;;;;;;3.17;2.87;;;27.70;1.00;;;;;;5033837;28;20463;-58
2023/09/26 12:57:28;;;;;;;4.17;3.00;;;27.60;1.00;;;;;;5033913;28;20498;-60
2023/09/26 12:59:57;;;;;;;5.80;3.23;;;27.50;1.00;;;;;;5035268;28;20526;-60